Headquarters, Valles Caldera, New Mexico Weather observations

Data are for 10 minute period ending at time listed.
 Day   Time   Solar   Ave.   Ave.  Ave.  Vector  Max.   Baro.   Total    
  of    of     Rad.   Air    Rel.  Wind   Wind   Wind  Press.  Precip.   
Year   Day            Temp.  Hum.  Speed  Dir.   Gust                    
2014   (MST)  Kw/m2    F      %     mph   deg.    mph    mb.     in.     
-------------------------------------------------------------------------
 296   11:20   0.59   59.1    31    6.7   353    11.9   746.1    0.00 
 296   11:30   0.60   59.6    31    7.2     6    14.3   745.9    0.00 
 296   11:40   0.60   60.4    30    5.7     8    12.5   745.8    0.00 
 296   11:50   0.60   60.6    30    6.2    23    11.9   745.6    0.00 
 296   12:00   0.60   61.4    29    5.5    42     9.6   745.6    0.00 
 296   12:10   0.60   62.1    28    7.0    55    11.9   745.4    0.00 
 296   12:20   0.59   62.6    29    6.5   335    11.9   745.2    0.00 
 296   12:30   0.59   63.6    29    5.9   150    12.5   745.1    0.00 
 296   12:40   0.58   63.8    29    7.3   186    13.1   745.0    0.00 
 296   12:50   0.57   64.3    29    7.5   221    14.3   744.9    0.00 
 296   13:00   0.57   64.5    29    4.7   212    10.2   744.8    0.00 
 296   13:10   0.56   64.7    29    7.1   192    11.9   744.7    0.00 
 296   13:20   0.55   64.5    29    6.2   194    11.3   744.7    0.00 
 296   13:30   0.55   64.1    29    8.7   193    16.1   744.5    0.00 
 296   13:40   0.54   64.3    29    8.1   204    15.5   744.5    0.00 
 296   13:50   0.51   64.4    28    8.4   205    15.5   744.4    0.00 
 296   14:00   0.50   64.2    28    8.8   205    14.9   744.4    0.00 
 296   14:10   0.48   64.7    27    9.3   218    17.3   744.4    0.00 
 296   14:20   0.47   64.4    27    6.7   247    13.7   744.4    0.00 
 296   14:30   0.45   64.0    27    4.5   322    10.8   744.5    0.00 
 296   14:40   0.42   63.6    27    5.2   302     9.0   744.5    0.00 
 296   14:50   0.38   63.0    28    5.4   317    10.2   744.5    0.00 
 296   15:00   0.33   62.3    28    4.9   297    10.2   744.6    0.00 
 296   15:10   0.27   62.3    28    4.3   314     9.6   744.6    0.00 
 296   15:20   0.23   61.8    28    5.1   345    10.2   744.6    0.00 
 296   15:30   0.19   61.1    29    4.7     4     9.0   744.6    0.00 
 296   15:40   0.16   60.3    30    5.8    13     9.6   744.6    0.00 
 296   15:50   0.15   60.1    30    4.7   327     9.6   744.7    0.00 
 296   16:00   0.14   60.4    30    3.7   285     8.4   744.7    0.00 
 296   16:10   0.13   60.0    30    5.1   285     9.6   744.7    0.00 
 296   16:20   0.12   59.4    30    4.4   286     9.0   744.8    0.00 
 296   16:30   0.01   57.5    32    5.0   276     8.4   745.0    0.00 
 296   16:40   0.01   54.8    37    4.1   270     6.6   745.1    0.00 
 296   16:50   0.01   53.0    40    4.1   282     7.8   745.1    0.00 
 296   17:00   0.01   53.3    38    4.0   250     6.0   745.1    0.00 
 296   17:10   0.01   52.1    40    3.0   238     5.4   745.2    0.00 
 296   17:20   0.00   49.9    45    2.8   256     4.8   745.3    0.00 
 296   17:30   0.00   47.5    52    4.0   266     5.4   745.2    0.00 
 296   17:40   0.00   46.8    53    3.0   272     4.8   745.3    0.00 
 296   17:50   0.00   45.9    55    3.5   258     5.4   745.3    0.00 
 296   18:00   0.00   44.2    59    3.6   278     6.6   745.3    0.00 
 296   18:10   0.00   43.4    61    3.9   265     5.4   745.3    0.00 
 296   18:20   0.00   42.5    62    4.0   261     6.0   745.3    0.00 
 296   18:30   0.00   42.2    63    3.6   264     4.8   745.4    0.00 
 296   18:40   0.00   42.2    63    3.3   258     4.8   745.4    0.00 
 296   18:50   0.00   42.0    64    2.3   280     4.2   745.4    0.00 
 296   19:00   0.00   42.1    63    2.3   258     4.8   745.4    0.00 
 296   19:10   0.00   41.6    64    2.4   262     3.6   745.5    0.00 
 296   19:20   0.00   41.0    65    3.0   293     5.4   745.5    0.00 
 296   19:30   0.00   40.0    66    3.1   242     4.8   745.7    0.00 
 296   19:40   0.00   39.9    67    3.5   269     5.4   745.8    0.00 
 296   19:50   0.00   40.5    67    3.5   268     4.8   745.8    0.00 
 296   20:00   0.00   39.9    68    3.9   266     5.4   745.9    0.00 
 296   20:10   0.00   39.5    71    4.6   288     6.6   745.9    0.00 
 296   20:20   0.00   38.6    74    3.8   254     5.4   745.9    0.00 
 296   20:30   0.00   38.8    73    3.2   277     4.8   746.0    0.00 
 296   20:40   0.00   39.0    72    2.9   290     4.2   746.1    0.00 
 296   20:50   0.00   38.9    71    1.9   245     3.6   746.1    0.00 
 296   21:00   0.00   38.8    71    3.1   279     4.2   746.2    0.00 
 296   21:10   0.00   38.4    72    2.2   292     4.2   746.3    0.00 
 296   21:20   0.00   37.7    74    3.5   268     6.6   746.3    0.00 
 296   21:30   0.00   37.4    74    3.4   290     5.4   746.5    0.00 
 296   21:40   0.00   37.0    75    3.2   267     5.4   746.5    0.00 
 296   21:50   0.00   36.5    76    4.2   270     5.4   746.6    0.00 
 296   22:00   0.00   36.6    76    3.6   276     5.4   746.6    0.00 
 296   22:10   0.00   36.8    75    2.9   282     4.2   746.6    0.00 
 296   22:20   0.00   36.9    72    1.9   293     4.2   746.6    0.00 
 296   22:30   0.00   35.8    77    1.6   343     4.8   746.5    0.00 
 296   22:40   0.00   35.8    76    1.6   304     5.4   746.6    0.00 
 296   22:50   0.00   35.5    76    2.6   272     6.0   746.6    0.00 
 296   23:00   0.00   35.4    75    2.4   251     4.8   746.6    0.00 
 296   23:10   0.00   35.2    75    2.3   308     5.4   746.6    0.00 
 296   23:20   0.00   34.3    75    3.2   276     5.4   746.6    0.00 
 296   23:30   0.00   33.7    78    3.2   252     4.8   746.6    0.00 
 296   23:40   0.00   34.6    76    3.3   279     4.8   746.6    0.00 
 296   23:50   0.00   33.8    76    3.2   272     5.4   746.7    0.00 
 297    0:00   0.00   34.5    75    3.6   277     5.4   746.7    0.00 
 297    0:10   0.00   34.4    73    3.7   253     6.0   746.9    0.00 
 297    0:20   0.00   34.2    74    3.9   278     6.0   746.9    0.00 
 297    0:30   0.00   34.6    74    2.2   276     4.2   746.9    0.00 
 297    0:40   0.00   35.7    70    2.6   294     4.2   746.9    0.00 
 297    0:50   0.00   33.9    74    1.6   296     3.0   746.8    0.00 
 297    1:00   0.00   34.1    75    2.0   294     3.6   746.7    0.00 
 297    1:10   0.00   32.8    77    1.2   328     3.6   746.7    0.00 
 297    1:20   0.00   32.4    79    1.8   240     5.4   746.7    0.00 
 297    1:30   0.00   32.1    79    2.7   283     4.8   746.6    0.00 
 297    1:40   0.00   32.9    77    2.4   324     3.6   746.7    0.00 
 297    1:50   0.00   31.7    77    1.3    70     3.6   746.7    0.00 
 297    2:00   0.00   30.4    82    2.1   261     4.2   746.6    0.00 
 297    2:10   0.00   31.6    79    2.8   318     4.2   746.6    0.00 
 297    2:20   0.00   31.9    78    1.7   279     3.0   746.6    0.00 
 297    2:30   0.00   30.9    79    3.4   248     4.8   746.5    0.00 
 297    2:40   0.00   31.8    78    4.1   285     5.4   746.4    0.00 
 297    2:50   0.00   31.4    77    2.3   261     4.2   746.3    0.00 
 297    3:00   0.00   32.5    78    1.7   359     3.0   746.3    0.00 
 297    3:10   0.00   31.6    77    0.2    15     1.8   746.3    0.00 
 297    3:20   0.00   29.5    80    1.7    21     3.6   746.3    0.00 
 297    3:30   0.00   28.0    85    1.8   298     3.6   746.3    0.00 
 297    3:40   0.00   29.2    85    2.7   234     4.2   746.4    0.00 
 297    3:50   0.00   30.1    82    2.7   254     3.6   746.4    0.00 
 297    4:00   0.00   30.9    79    3.2   260     4.8   746.3    0.00 
 297    4:10   0.00   31.4    78    2.9   288     4.8   746.3    0.00 
 297    4:20   0.00   31.8    76    2.3   294     4.2   746.2    0.00 
 297    4:30   0.00   32.1    74    1.1   285     3.0   746.3    0.00 
 297    4:40   0.00   32.3    71    2.4   289     4.2   746.3    0.00 
 297    4:50   0.00   32.7    70    3.0   256     4.2   746.4    0.00 
 297    5:00   0.00   32.3    72    3.5   264     4.8   746.4    0.00 
 297    5:10   0.00   33.3    73    3.6   284     5.4   746.4    0.00 
 297    5:20   0.00   32.4    72    1.9   355     4.2   746.4    0.00 
 297    5:30   0.00   27.7    79    1.2    13     3.6   746.4    0.00 
 297    5:40   0.00   26.7    86    2.0   275     3.0   746.5    0.00 
 297    5:50   0.00   28.0    84    1.2    62     3.0   746.5    0.00 
 297    6:00   0.00   27.5    87    2.2   344     3.0   746.7    0.00 
 297    6:10   0.00   28.9    84    2.2   239     3.6   746.7    0.00 
 297    6:20   0.00   28.7    80    3.4   300     5.4   746.8    0.00 
 297    6:30   0.00   28.9    79    0.9   198     3.0   746.9    0.00 
 297    6:40   0.01   28.7    80    1.2   280     3.6   747.0    0.00 
 297    6:50   0.03   30.5    77    1.3   296     3.0   747.1    0.00 
 297    7:00   0.07   34.4    69    2.9   227     5.4   747.1    0.00 
 297    7:10   0.10   36.1    66    4.3   225     6.0   747.1    0.00 
 297    7:20   0.13   38.3    66    3.7   184     5.4   747.1    0.00 
 297    7:30   0.15   34.0    73    2.4    68     4.2   747.2    0.00 
 297    7:40   0.18   35.2    74    1.4   139     3.6   747.3    0.00 
 297    7:50   0.21   39.0    68    1.1   154     3.0   747.3    0.00 
 297    8:00   0.24   40.9    67    1.5    80     3.0   747.2    0.00 
 297    8:10   0.27   42.5    64    2.3    77     3.6   747.3    0.00 
 297    8:20   0.29   42.0    67    2.6    89     4.2   747.4    0.00 
 297    8:30   0.32   43.9    66    1.7    76     3.0   747.4    0.00 
 297    8:40   0.35   46.9    59    1.6    92     3.0   747.5    0.00 
 297    8:50   0.38   48.7    54    2.9   169     4.2   747.6    0.00 
 297    9:00   0.40   51.7    46    2.6   143     4.2   747.7    0.00 
 297    9:10   0.43   53.1    43    2.8   135     4.2   747.7    0.00 
 297    9:20   0.45   54.7    40    4.3    99     7.2   747.8    0.00 
 297    9:30   0.47   54.7    42    3.4    71     5.4   748.0    0.00 
 297    9:40   0.49   56.6    35    2.6   101     4.2   748.0    0.00 
 297    9:50   0.51   59.1    30    2.8   116     4.8   747.9    0.00 
 297   10:00   0.53   60.8    27    2.9   133     4.8   747.9    0.00 
 297   10:10   0.55   63.1    24    3.2   128     5.4   747.9    0.00 
 297   10:20   0.56   64.4    20    3.1   139     6.0   747.8    0.00 
 297   10:30   0.57   64.8    18    4.1   125     6.0   747.9    0.00 
 297   10:40   0.58   66.0    19    5.4   161     9.0   747.9    0.00 
 297   10:50   0.59   66.7    19    4.1   155     9.0   747.8    0.00 
 297   11:00   0.60   66.7    18    4.7   139     8.4   747.7    0.00 
 297   11:10   0.60   67.0    17    6.4   169    11.9   747.7    0.00 

Return to Headquarters, Valles Caldera graphs page.


Western Regional Climate Center,wrcc@dri.edu